Aviation Digital Data Service (ADDS)

Output produced by METARs form (1032 UTC 07 December 2016)
found at http://aviationweather.gov/adds/metars/
 
KARA 071001Z AUTO 03007KT 6SM BR OVC004 13/11 A3005 RMK AO2 T01280106